Time;durP1;ratioP1;P1;durP2;ratioP2;P2;SDS_P1;SDS_P2;PMS_P1;PMS_P2;Temp;Humidity;BMP_temperature;BMP_pressure;BME280_temperature;BME280_humidity;BME280_pressure;Samples;Min_cycle;Max_cycle;Signal;HPM_P1;HPM_P2
2021/09/28 00:02:26;;;;;;;21.60;15.77;;;;;;;14.60;79.68;100853.44;5099728;28;20491;-73
2021/09/28 00:04:54;;;;;;;22.10;16.20;;;;;;;14.71;79.44;100855.09;5101233;28;20455;-73
2021/09/28 00:07:20;;;;;;;20.47;15.93;;;;;;;14.65;79.46;100849.31;5101069;27;20841;-72
2021/09/28 00:09:47;;;;;;;20.67;16.00;;;;;;;14.59;79.71;100847.22;5101404;28;20443;-72
2021/09/28 00:12:14;;;;;;;24.67;16.30;;;;;;;14.39;80.67;100845.63;5100846;27;20679;-72
2021/09/28 00:14:41;;;;;;;22.23;15.70;;;;;;;14.47;79.97;100859.16;5101567;28;20501;-72
2021/09/28 00:17:08;;;;;;;30.53;16.43;;;;;;;14.39;79.94;100856.38;5100797;27;20481;-73
2021/09/28 00:19:35;;;;;;;18.33;15.20;;;;;;;14.64;79.49;100846.78;5101691;28;20786;-73
2021/09/28 00:22:03;;;;;;;22.73;15.10;;;;;;;14.54;79.48;100851.34;5100774;27;20474;-73
2021/09/28 00:24:30;;;;;;;19.20;15.30;;;;;;;14.57;79.33;100865.34;5101751;28;20426;-73
2021/09/28 00:26:57;;;;;;;29.10;17.50;;;;;;;14.36;80.28;100856.72;5100664;28;20490;-73
2021/09/28 00:29:23;;;;;;;25.30;16.03;;;;;;;14.52;79.86;100862.25;5101607;28;20443;-73
2021/09/28 00:31:50;;;;;;;24.40;17.87;;;;;;;14.36;80.05;100862.91;5100513;28;20562;-72
2021/09/28 00:34:16;;;;;;;29.37;17.97;;;;;;;14.41;80.35;100857.94;5101644;28;20479;-72
2021/09/28 00:36:43;;;;;;;23.77;18.03;;;;;;;14.57;79.92;100857.28;5100209;27;20505;-73
2021/09/28 00:39:11;;;;;;;23.70;17.37;;;;;;;14.64;79.45;100868.31;5100909;28;20450;-72
2021/09/28 00:41:38;;;;;;;28.33;18.27;;;;;;;14.73;79.31;100858.47;5099730;27;20494;-72
2021/09/28 00:44:05;;;;;;;20.97;16.70;;;;;;;14.84;78.99;100864.50;5101217;28;20450;-72
2021/09/28 00:46:32;;;;;;;25.40;18.87;;;;;;;14.56;79.84;100858.25;5100293;27;20494;-73
2021/09/28 00:48:58;;;;;;;24.50;18.90;;;;;;;14.50;80.24;100861.56;5100479;28;20519;-72
2021/09/28 00:51:25;;;;;;;24.70;18.30;;;;;;;14.70;79.65;100854.22;5101348;27;20483;-72
2021/09/28 00:53:54;;;;;;;26.00;19.63;;;;;;;14.63;79.89;100861.22;5100434;28;21082;-72
2021/09/28 00:56:22;;;;;;;27.73;19.17;;;;;;;14.83;78.95;100862.78;5101074;27;20475;-72
2021/09/28 00:58:50;;;;;;;23.97;18.07;;;;;;;14.81;78.39;100862.09;5101386;28;20720;-72
2021/09/28 01:01:17;;;;;;;25.43;19.20;;;;;;;14.67;78.82;100863.47;5100514;27;20509;-72
2021/09/28 01:03:44;;;;;;;29.63;18.47;;;;;;;14.76;78.29;100867.09;5100350;28;20502;-72
2021/09/28 01:06:11;;;;;;;26.00;17.97;;;;;;;14.71;78.34;100860.47;5099823;27;20577;-72
2021/09/28 01:08:38;;;;;;;23.50;17.20;;;;;;;14.79;78.13;100861.41;5101381;28;20482;-72
2021/09/28 01:11:04;;;;;;;23.60;19.40;;;;;;;14.58;78.67;100860.78;5099911;27;20514;-72
2021/09/28 01:13:32;;;;;;;24.17;18.60;;;;;;;14.56;78.68;100871.72;5101557;28;20470;-71
2021/09/28 01:16:07;;;;;;;25.97;18.60;;;;;;;14.35;79.23;100869.28;5100287;27;20732;-72
2021/09/28 01:18:36;;;;;;;28.20;17.67;;;;;;;14.31;79.30;100874.13;5101133;28;20493;-72
2021/09/28 01:21:06;;;;;;;24.83;16.43;;;;;;;14.28;79.57;100878.97;5101234;27;20474;-72
2021/09/28 01:23:32;;;;;;;26.77;17.90;;;;;;;14.21;79.44;100884.06;5101361;28;20455;-71
2021/09/28 01:25:59;;;;;;;22.37;18.40;;;;;;;14.05;80.50;100894.63;5100621;28;20523;-72
2021/09/28 01:28:26;;;;;;;26.30;19.77;;;;;;;14.04;80.39;100884.88;5101719;28;20470;-72
2021/09/28 01:30:52;;;;;;;22.33;16.90;;;;;;;14.19;79.46;100888.75;5100618;27;20542;-72
2021/09/28 01:33:19;;;;;;;29.73;18.70;;;;;;;14.23;79.15;100884.78;5099943;28;20482;-72
2021/09/28 01:35:46;;;;;;;25.23;18.87;;;;;;;14.24;78.99;100882.94;5100649;28;20531;-72
2021/09/28 01:38:14;;;;;;;27.20;18.70;;;;;;;14.12;79.48;100885.81;5101514;28;20451;-72
2021/09/28 01:40:41;;;;;;;29.63;19.50;;;;;;;14.22;78.99;100883.09;5100869;27;20471;-72
2021/09/28 01:43:08;;;;;;;28.17;19.53;;;;;;;14.21;78.95;100892.16;5100547;28;20482;-73
2021/09/28 01:45:35;;;;;;;26.27;19.00;;;;;;;14.25;78.73;100881.94;5099871;28;20991;-73
2021/09/28 01:48:01;;;;;;;20.60;17.33;;;;;;;14.21;78.98;100883.25;5100432;28;20505;-73
2021/09/28 01:50:28;;;;;;;29.73;19.70;;;;;;;14.26;78.75;100880.97;5101047;27;20538;-73
2021/09/28 01:52:55;;;;;;;21.00;17.57;;;;;;;14.26;78.98;100880.97;5100561;28;20554;-73
2021/09/28 01:55:23;;;;;;;29.63;19.70;;;;;;;14.24;78.81;100882.94;5100393;28;20480;-73
2021/09/28 01:57:55;;;;;;;25.33;20.43;;;;;;;14.15;78.67;100895.44;5100955;28;20474;-73
2021/09/28 02:00:22;;;;;;;30.13;20.80;;;;;;;14.11;78.93;100896.72;5099921;27;20875;-73
2021/09/28 02:02:49;;;;;;;29.90;19.47;;;;;;;14.16;78.74;100886.38;5099697;28;20517;-73
2021/09/28 02:05:15;;;;;;;29.27;21.37;;;;;;;14.09;78.53;100902.25;5100487;28;20470;-73
2021/09/28 02:07:43;;;;;;;30.20;20.97;;;;;;;14.12;78.98;100898.44;5101323;28;20431;-73
2021/09/28 02:10:10;;;;;;;32.47;22.53;;;;;;;14.07;79.21;100901.53;5100351;27;20504;-72
2021/09/28 02:12:39;;;;;;;32.00;22.40;;;;;;;14.13;79.11;100902.81;5100018;28;20543;-73
2021/09/28 02:15:06;;;;;;;36.90;22.30;;;;;;;14.19;79.18;100912.13;5099921;27;20887;-72
2021/09/28 02:17:33;;;;;;;41.30;24.80;;;;;;;14.11;79.08;100900.28;5100336;28;20504;-72
2021/09/28 02:19:59;;;;;;;36.63;25.07;;;;;;;14.14;79.05;100909.88;5100800;28;20438;-73
2021/09/28 02:22:26;;;;;;;40.30;24.53;;;;;;;14.08;79.17;100905.09;5100080;28;20498;-72
2021/09/28 02:24:53;;;;;;;37.70;25.10;;;;;;;14.12;78.80;100909.19;5100211;28;20522;-72
2021/09/28 02:27:19;;;;;;;40.97;26.73;;;;;;;14.10;79.20;100909.31;5102136;28;20481;-73
2021/09/28 02:29:47;;;;;;;33.60;23.40;;;;;;;14.17;78.97;100908.75;5084235;28;20440;-73
2021/09/28 02:32:14;;;;;;;34.90;24.90;;;;;;;14.11;78.43;100908.34;5083019;28;20499;-72
2021/09/28 02:34:41;;;;;;;36.83;23.77;;;;;;;14.13;78.90;100916.25;5100620;28;21019;-73
2021/09/28 02:37:08;;;;;;;42.50;25.17;;;;;;;13.96;79.33;100917.00;5103371;28;20952;-72
2021/09/28 02:39:36;;;;;;;34.73;26.20;;;;;;;14.05;79.13;100913.47;5103478;28;21007;-72
2021/09/28 02:42:03;;;;;;;37.90;25.40;;;;;;;14.11;78.95;100913.72;5102725;28;20772;-73
2021/09/28 02:44:30;;;;;;;38.47;24.83;;;;;;;14.19;78.72;100917.50;5104140;28;20471;-71
2021/09/28 02:46:58;;;;;;;44.10;26.37;;;;;;;14.15;78.63;100916.09;5102879;28;21043;-71
2021/09/28 02:49:25;;;;;;;44.87;29.30;;;;;;;14.28;78.82;100913.91;5103595;28;20466;-71
2021/09/28 02:51:52;;;;;;;47.03;31.63;;;;;;;14.22;78.71;100928.81;5102707;28;20499;-71
2021/09/28 02:54:18;;;;;;;56.83;34.03;;;;;;;14.06;78.68;100918.69;5103692;28;20433;-71
2021/09/28 02:56:45;;;;;;;50.30;32.60;;;;;;;14.04;78.73;100926.03;5102151;28;20561;-71
2021/09/28 02:59:12;;;;;;;50.23;32.13;;;;;;;14.11;78.82;100920.91;5103578;28;20451;-71
2021/09/28 03:01:38;;;;;;;51.17;32.07;;;;;;;14.30;78.35;100928.94;5102128;28;20517;-71
2021/09/28 03:04:06;;;;;;;57.93;35.43;;;;;;;14.25;77.79;100928.53;5103437;28;20490;-71
2021/09/28 03:06:33;;;;;;;51.37;34.50;;;;;;;14.17;77.90;100933.78;5102270;28;20495;-71
2021/09/28 03:09:00;;;;;;;50.33;32.20;;;;;;;14.19;78.16;100930.94;5083836;28;20460;-71
2021/09/28 03:11:27;;;;;;;54.37;35.43;;;;;;;14.05;78.67;100930.44;5094344;28;20495;-71
2021/09/28 03:13:54;;;;;;;56.00;35.00;;;;;;;14.13;78.31;100935.09;5103640;28;20451;-71
2021/09/28 03:16:21;;;;;;;60.00;35.43;;;;;;;13.97;78.91;100930.31;5102694;28;20566;-71
2021/09/28 03:18:48;;;;;;;52.20;35.63;;;;;;;13.90;78.83;100932.72;5102375;28;20530;-72
2021/09/28 03:21:16;;;;;;;64.07;38.10;;;;;;;13.89;79.16;100931.03;5122833;28;20949;-72
2021/09/28 03:23:43;;;;;;;63.37;38.00;;;;;;;13.74;79.57;100929.81;5123551;28;20453;-72
2021/09/28 03:26:10;;;;;;;60.00;39.27;;;;;;;13.82;79.41;100938.00;5123098;28;20500;-72
2021/09/28 03:28:37;;;;;;;58.03;39.43;;;;;;;13.96;78.83;100934.00;5123910;28;20465;-72
2021/09/28 03:31:03;;;;;;;63.03;39.47;;;;;;;13.84;79.58;100935.16;5122731;28;20497;-72
2021/09/28 03:33:30;;;;;;;65.53;40.43;;;;;;;13.73;79.94;100934.34;5122975;28;20505;-72
2021/09/28 03:35:57;;;;;;;59.50;37.53;;;;;;;13.63;80.22;100938.88;5122406;28;20498;-71
2021/09/28 03:38:25;;;;;;;62.63;41.00;;;;;;;13.72;79.95;100934.47;5123041;28;20469;-71
2021/09/28 03:40:51;;;;;;;61.10;41.03;;;;;;;13.64;80.18;100940.56;5121789;28;20497;-72
2021/09/28 03:43:18;;;;;;;63.80;40.80;;;;;;;13.74;80.01;100944.06;5123058;28;20457;-71
2021/09/28 03:45:45;;;;;;;59.43;40.07;;;;;;;13.73;79.86;100938.84;5122300;28;20490;-71
2021/09/28 03:48:11;;;;;;;62.80;39.50;;;;;;;13.63;80.13;100946.94;5122192;28;20477;-71
2021/09/28 03:50:38;;;;;;;72.80;40.60;;;;;;;13.70;80.26;100952.59;5122507;28;20509;-71
2021/09/28 03:53:05;;;;;;;66.70;41.77;;;;;;;13.71;79.87;100949.75;5122766;28;20764;-71
2021/09/28 03:55:33;;;;;;;61.57;40.83;;;;;;;13.72;79.77;100950.59;5121981;28;20529;-71
2021/09/28 03:58:01;;;;;;;61.90;41.70;;;;;;;13.68;79.82;100957.22;5123224;28;20451;-72
2021/09/28 04:00:28;;;;;;;60.40;41.47;;;;;;;13.73;79.44;100947.78;5121909;28;20553;-72
2021/09/28 04:02:54;;;;;;;59.37;37.97;;;;;;;13.62;79.74;100955.13;5122124;28;20509;-72
2021/09/28 04:05:21;;;;;;;58.93;39.30;;;;;;;13.69;79.55;100959.78;5121390;28;20482;-72
2021/09/28 04:07:48;;;;;;;58.67;37.60;;;;;;;13.76;79.11;100965.44;5123081;28;20459;-72
2021/09/28 04:10:14;;;;;;;65.20;40.07;;;;;;;13.71;78.85;100960.50;5121480;28;20477;-72
2021/09/28 04:12:42;;;;;;;56.30;37.43;;;;;;;13.68;79.33;100962.59;5122431;28;20506;-72
2021/09/28 04:15:09;;;;;;;60.10;38.17;;;;;;;13.80;78.96;100974.06;5121856;28;20503;-72
2021/09/28 04:17:36;;;;;;;57.57;37.10;;;;;;;13.85;78.25;100978.03;5122727;28;20454;-72
2021/09/28 04:20:04;;;;;;;52.57;35.13;;;;;;;13.68;78.64;100971.53;5129597;27;20517;-71
2021/09/28 04:22:31;;;;;;;51.20;33.70;;;;;;;13.71;78.54;100976.63;5132622;27;20507;-71
2021/09/28 04:24:57;;;;;;;59.63;33.97;;;;;;;13.65;78.59;100970.97;5132275;27;20473;-71
2021/09/28 04:27:24;;;;;;;50.93;33.20;;;;;;;13.67;79.07;100971.69;5140237;27;20485;-72
2021/09/28 04:29:52;;;;;;;43.20;29.93;;;;;;;13.69;79.61;100977.75;5113828;28;20462;-72
2021/09/28 04:32:18;;;;;;;53.97;30.87;;;;;;;13.80;78.92;100979.44;5107665;27;20477;-72
2021/09/28 04:34:45;;;;;;;47.50;31.43;;;;;;;13.72;78.29;100981.00;5132819;27;20470;-73
2021/09/28 04:37:12;;;;;;;52.33;30.20;;;;;;;13.30;79.39;100977.75;5139979;27;20504;-73
2021/09/28 04:39:39;;;;;;;50.70;32.10;;;;;;;13.34;79.27;100979.19;5142587;27;20428;-69
2021/09/28 04:42:06;;;;;;;46.83;29.57;;;;;;;13.38;79.51;100983.28;5141360;27;20473;-70
2021/09/28 04:44:33;;;;;;;50.03;29.43;;;;;;;13.27;79.35;100976.16;5135839;27;20480;-69
2021/09/28 04:47:01;;;;;;;55.80;32.87;;;;;;;13.14;80.08;100987.19;5124506;27;20486;-69
2021/09/28 04:49:27;;;;;;;47.90;31.57;;;;;;;13.03;80.49;100981.09;5121933;28;20427;-70
2021/09/28 04:51:54;;;;;;;50.80;32.10;;;;;;;12.98;80.85;100997.59;5120880;28;20508;-69
2021/09/28 04:54:21;;;;;;;57.83;31.03;;;;;;;13.17;80.30;100994.94;5138424;27;20449;-69
2021/09/28 04:56:47;;;;;;;50.33;32.60;;;;;;;13.12;80.29;100983.81;5120901;28;20598;-69
2021/09/28 04:59:14;;;;;;;54.17;32.33;;;;;;;12.96;80.58;100992.38;5135295;27;20477;-69
2021/09/28 05:01:41;;;;;;;58.17;34.83;;;;;;;12.95;80.79;101000.56;5134611;27;20509;-72
2021/09/28 05:04:09;;;;;;;63.00;33.93;;;;;;;12.86;81.17;101002.22;5129309;27;20519;-70
2021/09/28 05:06:35;;;;;;;55.60;33.77;;;;;;;12.97;80.73;101001.28;5136951;27;20505;-70
2021/09/28 05:09:02;;;;;;;58.60;34.33;;;;;;;12.94;80.43;101002.41;5140923;27;20528;-70
2021/09/28 05:11:28;;;;;;;67.80;33.77;;;;;;;12.82;81.15;101000.81;5137946;27;20515;-70
2021/09/28 05:13:55;;;;;;;62.93;34.97;;;;;;;12.92;80.65;100998.16;5121756;28;20911;-70
2021/09/28 05:16:22;;;;;;;70.03;36.20;;;;;;;13.13;80.16;100998.91;5123949;28;20515;-70
2021/09/28 05:18:49;;;;;;;56.87;33.77;;;;;;;13.01;80.27;101000.03;5137625;28;20549;-71
2021/09/28 05:21:17;;;;;;;54.70;33.83;;;;;;;12.94;80.41;101002.41;5128955;28;20477;-71
2021/09/28 05:23:46;;;;;;;60.30;34.43;;;;;;;13.05;80.45;101006.81;5134861;28;20488;-71
2021/09/28 05:26:13;;;;;;;53.87;33.93;;;;;;;13.08;79.78;101008.38;5122691;28;20478;-71
2021/09/28 05:28:40;;;;;;;54.90;33.87;;;;;;;13.07;79.99;101012.91;5139412;28;20469;-72
2021/09/28 05:31:06;;;;;;;54.50;32.97;;;;;;;13.06;79.65;101016.56;5125770;28;20544;-71
2021/09/28 05:33:33;;;;;;;52.10;31.97;;;;;;;12.92;80.39;101025.00;5138830;28;20441;-71
2021/09/28 05:36:00;;;;;;;55.90;32.37;;;;;;;12.96;80.24;101029.94;5121034;28;20780;-71
2021/09/28 05:38:28;;;;;;;60.80;31.77;;;;;;;12.96;80.10;101034.47;5121489;28;20502;-71
2021/09/28 05:40:55;;;;;;;49.60;30.80;;;;;;;12.95;79.80;101032.75;5099791;28;20478;-70
2021/09/28 05:43:21;;;;;;;51.30;31.27;;;;;;;13.01;80.52;101032.22;5100636;28;20487;-69
2021/09/28 05:45:48;;;;;;;55.20;32.70;;;;;;;12.96;80.09;101050.59;5111957;27;20539;-70
2021/09/28 05:48:15;;;;;;;51.77;32.43;;;;;;;12.86;80.81;101047.00;5140283;28;20491;-70
2021/09/28 05:50:42;;;;;;;58.13;34.37;;;;;;;12.98;80.19;101052.16;5141773;27;20469;-69
2021/09/28 05:53:10;;;;;;;54.10;33.27;;;;;;;13.08;80.09;101043.28;5133893;28;20454;-70
2021/09/28 05:55:38;;;;;;;67.83;35.87;;;;;;;13.59;78.26;101046.78;5136457;27;20461;-70
2021/09/28 05:58:05;;;;;;;54.27;33.97;;;;;;;13.45;78.26;101037.28;5129044;28;20442;-69
2021/09/28 06:00:32;;;;;;;55.73;32.87;;;;;;;13.54;77.72;101053.41;5120753;28;20485;-69
2021/09/28 06:02:58;;;;;;;48.73;34.83;;;;;;;13.65;77.40;101057.81;5124125;28;20565;-69
2021/09/28 06:05:25;;;;;;;51.33;33.13;;;;;;;14.23;75.14;101058.75;5124239;28;20655;-70
2021/09/28 06:07:52;;;;;;;44.90;30.60;;;;;;;13.89;75.74;101060.06;5125492;28;20453;-69
2021/09/28 06:10:19;;;;;;;47.60;31.77;;;;;;;13.98;75.64;101063.75;5125343;28;20418;-70
2021/09/28 06:12:47;;;;;;;47.30;29.70;;;;;;;13.66;76.77;101061.34;5127472;27;20469;-69
2021/09/28 06:15:13;;;;;;;42.23;29.60;;;;;;;13.52;77.24;101059.91;5144744;27;20453;-69
2021/09/28 06:17:40;;;;;;;44.23;29.33;;;;;;;13.27;78.44;101056.72;5145491;27;20509;-69
2021/09/28 06:20:08;;;;;;;37.80;26.33;;;;;;;13.44;77.93;101060.63;5145596;27;20502;-69
2021/09/28 06:22:35;;;;;;;39.93;25.80;;;;;;;13.45;77.64;101064.97;5145069;27;21095;-69
2021/09/28 06:25:01;;;;;;;40.03;28.67;;;;;;;13.55;76.85;101068.53;5144669;27;20468;-69
2021/09/28 06:27:28;;;;;;;38.00;25.50;;;;;;;14.38;76.28;101073.44;5141941;27;20476;-69
2021/09/28 06:29:56;;;;;;;41.07;27.40;;;;;;;15.53;71.42;101077.59;5121400;27;20592;-69
2021/09/28 06:32:24;;;;;;;35.80;23.20;;;;;;;16.08;67.99;101067.69;5121479;28;21063;-69
2021/09/28 06:34:51;;;;;;;27.10;21.40;;;;;;;17.33;66.00;101071.75;5122899;28;20433;-70
2021/09/28 06:37:17;;;;;;;24.03;16.60;;;;;;;17.33;63.10;101074.47;5122929;27;20999;-70
2021/09/28 06:39:44;;;;;;;30.97;16.33;;;;;;;19.01;58.93;101074.94;5123633;28;20442;-70
2021/09/28 06:42:11;;;;;;;24.80;15.40;;;;;;;17.80;60.77;101081.16;5122028;27;20485;-70
2021/09/28 06:44:38;;;;;;;24.50;14.87;;;;;;;18.21;60.38;101071.22;5128045;27;21006;-70
2021/09/28 06:47:06;;;;;;;19.67;14.40;;;;;;;19.21;57.56;101080.75;5134133;27;20521;-70
2021/09/28 06:49:33;;;;;;;20.30;12.60;;;;;;;19.00;57.31;101079.50;5122519;28;20999;-70
2021/09/28 06:51:59;;;;;;;18.10;13.07;;;;;;;19.38;56.62;101085.06;5122336;27;20500;-70
2021/09/28 06:54:26;;;;;;;20.07;13.47;;;;;;;18.50;58.87;101077.09;5123314;28;20612;-70
2021/09/28 06:56:53;;;;;;;14.90;11.23;;;;;;;19.14;56.82;101079.78;5122224;28;20469;-69
2021/09/28 06:59:19;;;;;;;18.63;11.30;;;;;;;19.52;54.23;101077.22;5123484;28;20464;-70
2021/09/28 07:01:46;;;;;;;20.50;10.93;;;;;;;19.08;56.96;101078.63;5121795;27;20818;-71
2021/09/28 07:04:14;;;;;;;15.60;11.50;;;;;;;19.22;56.11;101073.47;5122492;28;21010;-69
2021/09/28 07:06:41;;;;;;;17.00;11.17;;;;;;;18.54;57.23;101075.72;5122118;28;20501;-69
2021/09/28 07:09:07;;;;;;;21.00;12.07;;;;;;;20.00;53.72;101082.47;5131900;27;20457;-70
2021/09/28 07:11:34;;;;;;;19.03;12.00;;;;;;;19.10;55.05;101092.84;5126954;27;20560;-70
2021/09/28 07:14:01;;;;;;;15.33;11.90;;;;;;;19.30;55.40;101090.53;5122170;28;20470;-69
2021/09/28 07:16:27;;;;;;;20.50;11.70;;;;;;;20.53;52.73;101090.66;5121420;27;20502;-70
2021/09/28 07:18:54;;;;;;;15.47;11.10;;;;;;;19.37;55.43;101096.09;5122462;28;20450;-70
2021/09/28 07:21:22;;;;;;;15.90;11.20;;;;;;;19.40;54.74;101097.63;5122107;27;20561;-69
2021/09/28 07:23:49;;;;;;;16.60;12.20;;;;;;;18.94;56.36;101096.47;5132090;27;20587;-69
2021/09/28 07:26:15;;;;;;;13.20;9.90;;;;;;;21.13;51.78;101100.53;5120454;27;20565;-69
2021/09/28 07:28:42;;;;;;;18.97;10.30;;;;;;;20.77;50.85;101092.31;5121805;28;20473;-70
2021/09/28 07:31:09;;;;;;;13.93;8.37;;;;;;;21.05;50.46;101098.75;5121243;28;20992;-70
2021/09/28 07:33:36;;;;;;;12.90;10.00;;;;;;;20.66;51.23;101094.44;5121775;28;20533;-70
2021/09/28 07:36:05;;;;;;;13.73;9.37;;;;;;;20.83;50.50;101096.97;5121320;27;20482;-69
2021/09/28 07:38:34;;;;;;;12.00;9.20;;;;;;;20.37;50.51;101088.97;5122317;28;21213;-69
2021/09/28 07:41:00;;;;;;;15.77;9.40;;;;;;;21.22;49.50;101093.13;5108916;27;20499;-70
2021/09/28 07:43:27;;;;;;;15.80;9.30;;;;;;;19.75;53.39;101099.81;5101177;28;20519;-69
2021/09/28 07:45:54;;;;;;;10.40;8.73;;;;;;;19.97;52.90;101096.44;5100854;28;20482;-69
2021/09/28 07:48:21;;;;;;;17.47;10.17;;;;;;;20.81;50.27;101099.88;5104651;27;20628;-70
2021/09/28 07:50:48;;;;;;;12.33;8.37;;;;;;;20.73;50.14;101090.97;5118831;28;20490;-70
2021/09/28 07:53:15;;;;;;;15.47;9.00;;;;;;;19.69;53.34;101089.63;5121062;28;20481;-70
2021/09/28 07:55:43;;;;;;;14.67;9.60;;;;;;;20.27;52.13;101094.63;5120374;28;20498;-69
2021/09/28 07:58:09;;;;;;;12.90;8.83;;;;;;;19.48;53.22;101098.41;5120342;28;20502;-69
2021/09/28 08:00:39;;;;;;;17.30;8.37;;;;;;;21.77;48.24;101094.41;5120983;27;20477;-69
2021/09/28 08:03:06;;;;;;;13.47;8.90;;;;;;;21.45;48.77;101101.13;5120506;27;20497;-69
2021/09/28 08:05:33;;;;;;;12.37;9.40;;;;;;;21.65;48.33;101097.81;5119519;28;20458;-69
2021/09/28 08:07:59;;;;;;;13.17;9.70;;;;;;;21.36;48.73;101096.84;5120942;28;20873;-69
2021/09/28 08:10:26;;;;;;;12.43;9.50;;;;;;;22.97;45.75;101104.56;5120190;28;20485;-70
2021/09/28 08:12:54;;;;;;;14.47;10.23;;;;;;;21.90;47.14;101098.28;5119310;28;21043;-70
2021/09/28 08:15:21;;;;;;;13.10;8.17;;;;;;;23.91;43.22;101105.78;5119725;27;20501;-70
2021/09/28 08:17:47;;;;;;;9.60;8.60;;;;;;;22.63;45.59;101098.91;5120139;28;20450;-70
2021/09/28 08:20:18;;;;;;;12.80;8.67;;;;;;;22.96;43.45;101106.44;5119654;28;20466;-70
2021/09/28 08:22:45;;;;;;;13.13;7.60;;;;;;;22.44;45.39;101091.44;5122192;27;20499;-69
2021/09/28 08:25:15;;;;;;;10.57;7.83;;;;;;;24.32;42.63;101097.41;5140275;27;20513;-70
2021/09/28 08:30:28;;;;;;;12.20;7.53;;;;;;;21.68;46.97;101103.69;5120081;27;20468;-70
2021/09/28 08:32:55;;;;;;;15.70;7.40;;;;;;;22.42;45.97;101102.53;5121632;28;20544;-70
2021/09/28 08:35:22;;;;;;;14.00;6.93;;;;;;;22.68;46.40;101104.59;5120526;28;20450;-69
2021/09/28 08:37:48;;;;;;;9.27;6.27;;;;;;;20.52;50.33;101097.97;5121755;28;20437;-69
2021/09/28 08:40:16;;;;;;;13.57;7.00;;;;;;;19.77;52.79;101101.47;5121646;28;20774;-69
2021/09/28 08:42:43;;;;;;;12.60;6.80;;;;;;;19.62;53.48;101095.97;5120064;28;20897;-69
2021/09/28 08:45:10;;;;;;;12.17;6.27;;;;;;;20.21;51.95;101096.22;5121008;28;20957;-69
2021/09/28 08:47:40;;;;;;;13.00;6.03;;;;;;;20.97;50.36;101090.72;5121137;28;20462;-69
2021/09/28 08:50:10;;;;;;;11.67;5.80;;;;;;;21.46;49.31;101100.13;5119653;28;20487;-69
2021/09/28 08:52:39;;;;;;;9.87;5.50;;;;;;;24.43;43.47;101094.03;5120737;28;20438;-70
2021/09/28 08:55:07;;;;;;;10.63;5.37;;;;;;;22.31;46.04;101098.47;5120288;27;20419;-70
2021/09/28 08:57:33;;;;;;;8.97;4.50;;;;;;;23.08;43.76;101101.28;5119944;28;20465;-69
2021/09/28 09:00:00;;;;;;;8.67;4.23;;;;;;;24.11;42.28;101101.16;5121835;28;20901;-70
2021/09/28 09:02:41;;;;;;;9.93;4.53;;;;;;;24.07;42.10;101099.91;5120170;27;21038;-70
2021/09/28 09:05:11;;;;;;;10.10;5.20;;;;;;;24.07;42.79;101105.38;5120014;28;20529;-70
2021/09/28 09:07:38;;;;;;;14.90;5.50;;;;;;;21.96;46.36;101103.81;5121924;27;20454;-70
2021/09/28 09:10:05;;;;;;;15.30;5.37;;;;;;;21.70;47.97;101098.06;5137670;27;20473;-70
2021/09/28 09:12:33;;;;;;;10.03;4.60;;;;;;;23.38;44.47;101104.56;5140037;27;20436;-70
2021/09/28 09:15:20;;;;;;;14.90;5.20;;;;;;;22.14;47.16;101100.59;5142670;27;20444;-69
2021/09/28 09:17:49;;;;;;;6.90;4.53;;;;;;;21.81;48.53;101095.69;5141979;28;20491;-70
2021/09/28 09:20:32;;;;;;;9.27;4.70;;;;;;;22.81;46.60;101097.53;5140253;27;20436;-70
2021/09/28 09:23:15;;;;;;;8.80;4.43;;;;;;;24.76;42.10;101089.59;5141773;28;20450;-70
2021/09/28 09:25:41;;;;;;;9.77;3.97;;;;;;;26.10;39.85;101092.53;5141726;27;20496;-71
2021/09/28 09:28:20;;;;;;;8.97;4.30;;;;;;;24.55;41.63;101086.06;5137979;28;20903;-70
2021/09/28 09:30:46;;;;;;;9.57;4.30;;;;;;;23.54;43.71;101092.47;5140899;27;20473;-70
2021/09/28 09:33:23;;;;;;;14.23;5.00;;;;;;;24.75;42.20;101075.06;5141507;28;20480;-70
2021/09/28 09:35:57;;;;;;;12.00;4.80;;;;;;;25.42;40.13;101077.59;5142808;27;20473;-69
2021/09/28 09:38:23;;;;;;;12.27;4.50;;;;;;;24.90;40.88;101077.56;5146384;27;20461;-70
2021/09/28 09:40:50;;;;;;;10.57;4.27;;;;;;;25.10;40.95;101071.16;5144847;27;20457;-70
2021/09/28 09:43:18;;;;;;;9.43;4.90;;;;;;;25.58;39.54;101078.13;5144759;27;20453;-71
2021/09/28 09:45:45;;;;;;;10.90;4.27;;;;;;;24.81;40.89;101066.00;5145522;27;20540;-70
2021/09/28 09:48:26;;;;;;;7.50;4.10;;;;;;;24.87;41.48;101077.97;5144586;27;21013;-70
2021/09/28 09:50:58;;;;;;;11.67;4.90;;;;;;;23.37;44.05;101078.34;5144056;27;20472;-70
2021/09/28 09:53:25;;;;;;;10.50;4.30;;;;;;;23.26;44.26;101081.63;5145421;27;20491;-70
2021/09/28 09:55:52;;;;;;;8.03;3.87;;;;;;;21.93;48.17;101078.84;5138620;27;20493;-70
2021/09/28 09:58:20;;;;;;;10.70;4.77;;;;;;;20.06;51.86;101071.72;5144892;27;20444;-70
2021/09/28 10:00:48;;;;;;;13.83;4.93;;;;;;;19.83;53.45;101068.22;5145262;27;20479;-70
2021/09/28 10:03:16;;;;;;;8.50;4.20;;;;;;;19.48;53.40;101074.00;5144848;27;20593;-69
2021/09/28 10:05:44;;;;;;;11.37;4.90;;;;;;;19.25;54.60;101081.25;5144031;27;20496;-70
2021/09/28 10:08:13;;;;;;;8.70;3.63;;;;;;;20.59;52.14;101076.31;5145468;27;20460;-70
2021/09/28 10:10:40;;;;;;;6.60;4.07;;;;;;;21.56;49.77;101075.31;5144248;27;20948;-71
2021/09/28 10:13:07;;;;;;;8.80;3.33;;;;;;;21.48;49.11;101081.72;5144406;27;20753;-71
2021/09/28 10:15:35;;;;;;;9.37;4.00;;;;;;;21.26;50.09;101075.38;5133125;27;20458;-71
2021/09/28 10:18:05;;;;;;;14.87;4.43;;;;;;;20.65;50.08;101068.31;5123874;28;20500;-70
2021/09/28 10:20:32;;;;;;;8.93;4.77;;;;;;;21.19;49.62;101072.56;5123028;27;20466;-71
2021/09/28 10:23:01;;;;;;;16.33;4.30;;;;;;;21.99;48.60;101076.19;5123993;27;20446;-71
2021/09/28 10:25:41;;;;;;;11.93;4.23;;;;;;;21.95;46.43;101072.16;5121399;27;20535;-70
2021/09/28 10:28:41;;;;;;;10.50;4.50;;;;;;;20.90;49.06;101072.59;5121746;28;20456;-69
2021/09/28 10:31:12;;;;;;;15.83;3.77;;;;;;;22.40;47.75;101066.47;5120564;27;20533;-71
2021/09/28 10:33:40;;;;;;;9.10;4.20;;;;;;;23.16;44.54;101073.84;5119872;28;20457;-69
2021/09/28 10:36:11;;;;;;;10.97;5.80;;;;;;;22.09;46.72;101061.38;5123647;27;20512;-69
2021/09/28 10:39:01;;;;;;;14.43;5.87;;;;;;;22.45;46.61;101068.63;5121753;28;20501;-69
2021/09/28 10:41:42;;;;;;;10.03;5.50;;;;;;;22.00;47.04;101060.69;5120587;27;20470;-69
2021/09/28 10:44:47;;;;;;;10.77;5.90;;;;;;;21.74;48.16;101061.28;5121236;27;20482;-69
2021/09/28 10:47:46;;;;;;;12.80;5.27;;;;;;;22.50;45.57;101060.69;5119891;27;20500;-68
2021/09/28 10:50:27;;;;;;;14.13;5.47;;;;;;;21.90;46.50;101054.72;5117210;27;21109;-68
2021/09/28 10:52:55;;;;;;;13.60;5.40;;;;;;;21.17;47.17;101052.06;5118280;28;20468;-69
2021/09/28 10:55:40;;;;;;;9.53;4.60;;;;;;;21.75;47.40;101052.94;5120772;28;20525;-69
2021/09/28 10:58:15;;;;;;;11.00;5.83;;;;;;;21.04;48.50;101056.28;5122504;28;20517;-69
2021/09/28 11:01:15;;;;;;;11.23;4.73;;;;;;;20.90;50.81;101056.28;5101476;28;20481;-69
2021/09/28 11:03:50;;;;;;;13.73;5.20;;;;;;;21.10;48.94;101054.69;5098719;28;20486;-68
2021/09/28 11:06:18;;;;;;;13.43;4.67;;;;;;;22.37;47.77;101055.97;5101321;28;20533;-70
2021/09/28 11:08:44;;;;;;;9.63;4.20;;;;;;;23.83;43.58;101049.47;5121762;28;20442;-70
2021/09/28 11:11:13;;;;;;;10.03;3.70;;;;;;;21.71;46.94;101045.34;5119356;28;20502;-70
2021/09/28 11:13:41;;;;;;;9.63;4.00;;;;;;;21.15;48.29;101052.25;5121108;28;20458;-70
2021/09/28 11:16:10;;;;;;;8.23;4.03;;;;;;;19.73;51.52;101052.13;5121480;28;20470;-70
2021/09/28 11:18:38;;;;;;;9.60;4.30;;;;;;;20.45;51.45;101051.69;5121010;27;20527;-69
2021/09/28 11:21:09;;;;;;;12.40;5.13;;;;;;;21.03;48.53;101049.16;5121771;28;20871;-69